Latest Weather Observations for Green Cape

IDN60801

Issued at 10:32 pm EST Thursday 3 September 2015 (issued every 30 minutes, with the page automatically refreshed every 10 minutes)

About weather observations | Map of weather stations | Latest weather observations for NSW | Other Formats
Station Details ID: 069137 Name: GREEN CAPE AWS Lat: -37.26 Lon: 150.05 Height: 19.4 m
Data from the previous 72 hours. | See also: Recent months at Green Cape
Date/Time
EST
Temp
°C
App
Temp
°C
Dew
Point
Rel
Hum
%
Delta-T
°C
Wind Press
QNH
hPa
Press
MSL
hPa
Rain
since 9 am
mm
Dir
 
Spd
km/h
Gust
km/h
Spd
kts
Gust
kts
03/10:30pm 13.6 3.9 10.6 82 1.6 S 52 59 28 32 1017.5 1017.5 2.6
03/10:00pm 13.7 4.9 11.0 84 1.4 S 48 54 26 29 1017.4 1017.4 2.6
03/09:30pm 13.8 5.1 11.3 85 1.3 S 48 56 26 30 1017.0 1017.0 2.6
03/09:00pm 14.0 5.4 11.5 85 1.3 S 48 57 26 31 1016.5 1016.5 2.6
03/08:30pm 14.1 5.9 11.6 85 1.3 S 46 54 25 29 1015.9 1015.9 2.6
03/08:00pm 14.1 5.9 11.8 86 1.2 S 46 56 25 30 1015.3 1015.3 2.6
03/07:30pm 14.0 5.2 12.2 89 1.0 S 50 57 27 31 1014.9 1014.9 2.6
03/07:00pm 13.8 4.1 11.7 87 1.1 S 54 65 29 35 1014.2 1014.2 2.6
03/06:30pm 14.4 4.4 12.1 86 1.2 S 56 63 30 34 1013.3 1013.3 2.6
03/06:00pm 14.5 5.4 12.5 88 1.1 S 52 61 28 33 1012.4 1012.4 2.6
03/05:30pm 14.5 5.8 12.7 89 1.0 S 50 57 27 31 1011.6 1011.6 2.6
03/05:00pm 14.5 6.3 12.9 90 0.9 SSW 48 57 26 31 1011.0 1011.0 2.6
03/04:30pm 14.6 5.5 12.6 88 1.1 SSW 52 61 28 33 1010.1 1010.1 2.6
03/04:00pm 14.6 5.4 12.3 86 1.3 SSW 52 61 28 33 1009.3 1009.3 2.6
03/03:30pm 14.5 5.4 12.4 87 1.1 SSW 52 59 28 32 1008.6 1008.6 2.6
03/03:00pm 14.8 9.3 12.5 86 1.3 SW 33 50 18 27 1008.1 1008.1 2.6
03/02:30pm 13.7 8.6 11.8 88 1.0 SW 30 41 16 22 1007.8 1007.8 2.6
03/02:00pm 13.4 9.8 11.8 90 0.9 W 22 28 12 15 1007.6 1007.6 2.6
03/01:30pm 13.1 10.0 11.5 90 0.8 W 19 22 10 12 1007.4 1007.4 2.4
03/01:00pm 13.3 7.8 11.7 90 0.9 W 32 39 17 21 1007.2 1007.2 2.4
03/12:30pm 12.9 7.3 11.5 91 0.7 WSW 32 39 17 21 1007.0 1007.0 2.4
03/12:00pm 12.6 7.8 11.5 93 0.6 WSW 28 33 15 18 1007.1 1007.1 1.8
03/11:30am 12.1 8.3 11.0 93 0.6 W 22 26 12 14 1007.2 1007.2 1.2
03/11:00am 11.8 8.4 10.7 93 0.6 WSW 19 22 10 12 1007.3 1007.3 1.2
03/10:30am 11.9 6.5 10.8 93 0.6 SSW 30 32 16 17 1007.2 1007.2 0.8
03/10:00am 11.9 6.1 10.8 93 0.6 SSW 32 37 17 20 1006.9 1006.9 0.2
03/09:30am 12.2 8.0 11.1 93 0.6 SSW 24 30 13 16 1006.9 1006.9 0.0
03/09:00am 11.3 8.1 10.0 92 0.7 W 17 19 9 10 1007.2 1007.2 2.8
03/08:30am 11.3 8.9 9.9 91 0.7 W 13 15 7 8 1006.9 1006.9 2.6
03/08:00am 11.2 9.1 9.6 90 0.8 W 11 13 6 7 1006.5 1006.5 1.8
03/07:30am 11.4 8.5 9.5 88 1.0 WSW 15 17 8 9 1006.0 1006.0 1.2
03/07:00am 11.6 9.4 9.3 86 1.2 W 11 13 6 7 1005.7 1005.7 1.2
03/06:30am 11.5 9.3 9.2 86 1.2 WNW 11 17 6 9 1005.3 1005.3 0.6
03/06:00am 11.8 9.6 9.5 86 1.2 WNW 11 17 6 9 1004.8 1004.8 0.4
03/05:30am 12.6 11.1 9.2 80 1.7 NNW 7 11 4 6 1004.7 1004.7 0.0
03/05:00am 12.5 10.9 8.8 78 1.9 WNW 7 9 4 5 1004.7 1004.7 0.0
03/04:30am 12.7 10.0 10.4 86 1.2 NNW 15 19 8 10 1005.0 1005.0 0.0
03/04:00am 11.8 11.8 9.9 88 1.0 CALM 0 6 0 3 1004.9 1004.9 0.0
03/03:30am 11.3 9.5 9.4 88 1.0 W 9 13 5 7 1004.9 1004.9 0.0
03/03:00am 11.8 10.1 9.9 88 1.0 W 9 11 5 6 1005.1 1005.1 0.0
03/02:30am 12.3 10.6 10.0 86 1.2 W 9 11 5 6 1005.6 1005.6 0.0
03/02:00am 13.3 12.4 11.2 87 1.1 N 7 11 4 6 1006.2 1006.2 0.0
03/01:30am 13.2 12.2 10.9 86 1.2 N 7 11 4 6 1006.7 1006.7 0.0
03/01:00am 13.3 12.3 10.3 82 1.6 N 6 9 3 5 1006.9 1006.9 0.0
03/12:30am 13.3 12.0 9.9 80 1.7 N 7 11 4 6 1007.1 1007.1 0.0
03/12:00am 13.7 12.1 10.3 80 1.8 NNW 9 9 5 5 1007.4 1007.4 0.0
 
Date/Time
EST
Temp
°C
App
Temp
°C
Dew
Point
Rel
Hum
%
Delta-T
°C
Wind Press
QNH
hPa
Press
MSL
hPa
Rain
since 9 am
mm
Dir
 
Spd
km/h
Gust
km/h
Spd
kts
Gust
kts
02/11:30pm 13.5 11.7 11.0 85 1.3 N 11 13 6 7 1007.6 1007.6 0.0
02/11:00pm 13.2 13.0 10.4 83 1.5 N 2 4 1 2 1007.8 1007.8 0.0
02/10:30pm 13.7 12.8 10.7 82 1.6 N 6 7 3 4 1008.5 1008.5 0.0
02/10:00pm 13.8 12.6 10.4 80 1.8 N 7 11 4 6 1008.8 1008.8 0.0
02/09:30pm 13.6 12.1 10.4 81 1.7 N 9 13 5 7 1009.0 1009.0 0.0
02/09:00pm 14.1 11.5 10.7 80 1.8 N 15 19 8 10 1009.2 1009.2 0.0
02/08:30pm 14.7 10.6 11.3 80 1.8 N 24 30 13 16 1009.4 1009.4 0.0
02/08:00pm 14.8 10.6 11.0 78 2.0 NNE 24 30 13 16 1009.4 1009.4 0.0
02/07:30pm 14.7 10.4 10.9 78 2.0 NNE 24 30 13 16 1009.5 1009.5 0.0
02/07:00pm 14.9 9.4 10.7 76 2.2 NNE 30 35 16 19 1009.5 1009.5 0.0
02/06:30pm 14.9 9.1 10.9 77 2.1 NNE 32 37 17 20 1009.4 1009.4 0.0
02/06:00pm 14.9 9.0 10.5 75 2.3 NNE 32 35 17 19 1009.8 1009.8 0.0
02/05:30pm 15.0 11.9 12.1 83 1.6 NNE 20 24 11 13 1009.8 1009.8 0.0
02/05:00pm 15.0 11.4 12.0 82 1.6 NNE 22 24 12 13 1009.8 1009.8 0.0
02/04:30pm 15.1 10.7 11.7 80 1.8 N 26 30 14 16 1010.3 1010.3 0.0
02/04:00pm 15.5 11.2 11.9 79 2.0 NNE 26 30 14 16 1010.5 1010.5 0.0
02/03:30pm 15.7 10.6 11.9 78 2.1 N 30 35 16 19 1010.7 1010.7 0.0
02/03:00pm 15.6 10.3 11.4 76 2.3 NNE 30 35 16 19 1010.8 1010.8 0.0
02/02:30pm 16.1 11.3 11.7 75 2.4 NNE 28 33 15 18 1011.1 1011.1 0.0
02/02:00pm 15.9 10.3 11.5 75 2.4 NNE 32 37 17 20 1011.4 1011.4 0.0
02/01:30pm 16.0 11.9 11.6 75 2.4 NNE 24 28 13 15 1011.9 1011.9 0.0
02/01:00pm 15.6 10.6 11.0 74 2.5 NNE 28 32 15 17 1012.5 1012.5 0.0
02/12:30pm 15.6 12.2 11.4 76 2.3 NNE 20 24 11 13 1013.3 1013.3 0.0
02/12:00pm 15.3 11.5 11.3 77 2.1 NNE 22 28 12 15 1013.8 1013.8 0.0
02/11:30am 14.9 11.4 10.9 77 2.1 NNE 20 24 11 13 1014.3 1014.3 0.0
02/11:00am 14.4 10.8 10.6 78 2.0 N 20 26 11 14 1014.7 1014.7 0.0
02/10:30am 13.9 10.7 10.1 78 2.0 N 17 20 9 11 1015.1 1015.1 0.0
02/10:00am 12.8 8.4 9.1 78 1.9 N 22 26 12 14 1015.3 1015.3 0.0
02/09:30am 13.0 9.1 9.3 78 1.9 N 20 26 11 14 1015.6 1015.6 0.0
02/09:00am 11.5 9.6 9.1 85 1.2 N 9 13 5 7 1015.8 1015.8 0.0
02/08:30am 8.2 5.3 6.3 88 0.9 W 11 15 6 8 1015.8 1015.8 0.0
02/08:00am 8.2 5.3 6.5 89 0.8 W 11 13 6 7 1015.7 1015.7 0.0
02/07:30am 7.7 4.4 6.3 91 0.6 WNW 13 15 7 8 1015.7 1015.7 0.0
02/07:00am 7.6 4.7 6.4 92 0.5 WNW 11 13 6 7 1015.6 1015.6 0.0
02/06:30am 7.2 4.2 6.0 92 0.5 W 11 13 6 7 1015.6 1015.6 0.0
02/06:00am 7.2 3.4 5.8 91 0.6 W 15 19 8 10 1015.7 1015.7 0.0
02/05:30am 7.5 3.8 6.1 91 0.6 W 15 17 8 9 1015.7 1015.7 0.0
02/05:00am 7.4 4.0 5.9 90 0.7 W 13 15 7 8 1015.5 1015.5 0.0
02/04:30am 7.2 3.0 5.5 89 0.8 W 17 20 9 11 1015.5 1015.5 0.0
02/04:00am 7.9 3.7 5.7 86 1.0 W 17 17 9 9 1015.4 1015.4 0.0
02/03:30am 8.1 4.3 5.6 84 1.1 W 15 19 8 10 1015.4 1015.4 0.0
02/03:00am 7.9 3.7 5.7 86 1.0 WNW 17 19 9 10 1015.6 1015.6 0.0
02/02:30am 7.9 3.4 5.9 87 0.9 W 19 22 10 12 1015.9 1015.9 0.0
02/02:00am 8.1 3.9 5.9 86 1.0 W 17 20 9 11 1016.1 1016.1 0.0
02/01:30am 8.1 3.6 5.9 86 1.0 W 19 22 10 12 1016.3 1016.3 0.0
02/01:00am 8.3 3.6 5.9 85 1.1 W 20 24 11 13 1016.3 1016.3 0.0
02/12:30am 8.3 4.5 5.9 85 1.1 W 15 19 8 10 1016.1 1016.1 0.0
02/12:00am 8.4 3.3 6.0 85 1.1 W 22 26 12 14 1016.3 1016.3 0.0
 
Date/Time
EST
Temp
°C
App
Temp
°C
Dew
Point
Rel
Hum
%
Delta-T
°C
Wind Press
QNH
hPa
Press
MSL
hPa
Rain
since 9 am
mm
Dir
 
Spd
km/h
Gust
km/h
Spd
kts
Gust
kts
01/11:30pm 9.0 4.4 6.3 83 1.2 W 20 24 11 13 1016.2 1016.2 0.0
01/11:00pm 8.8 5.1 6.1 83 1.2 WNW 15 20 8 11 1016.2 1016.2 0.0
01/10:30pm 9.4 4.0 6.5 82 1.3 W 24 26 13 14 1016.2 1016.2 0.0
01/10:00pm 9.6 4.6 6.5 81 1.4 W 22 26 12 14 1015.9 1015.9 0.0
01/09:30pm 9.7 5.0 6.2 79 1.6 W 20 24 11 13 1015.5 1015.5 0.0
01/09:00pm 9.8 5.7 6.0 77 1.7 W 17 22 9 12 1015.6 1015.6 0.0
01/08:30pm 10.7 6.7 6.5 75 2.0 W 17 22 9 12 1015.4 1015.4 0.0
01/08:00pm 11.2 6.6 6.7 74 2.1 SW 20 26 11 14 1015.1 1015.1 0.0
01/07:30pm 11.3 5.5 6.4 72 2.3 SW 26 32 14 17 1015.0 1015.0 0.0
01/07:00pm 11.6 5.1 6.7 72 2.3 SW 30 33 16 18 1014.6 1014.6 0.0
01/06:30pm 11.7 5.2 6.4 70 2.5 SSW 30 35 16 19 1014.2 1014.2 0.0
01/06:00pm 12.0 5.5 6.5 69 2.6 SW 30 35 16 19 1014.1 1014.1 0.0
01/05:30pm 12.3 4.2 6.8 69 2.6 SSW 39 44 21 24 1013.4 1013.4 0.0
01/05:00pm 12.8 5.1 7.0 68 2.8 SSW 37 41 20 22 1013.4 1013.4 0.0
01/04:30pm 13.4 5.7 7.0 65 3.1 SSW 37 43 20 23 1013.3 1013.3 0.0
01/04:00pm 13.6 4.9 6.2 61 3.5 SW 41 46 22 25 1013.1 1013.1 0.0
01/03:30pm 14.0 5.8 6.4 60 3.7 SSW 39 46 21 25 1013.1 1013.1 0.0
01/03:00pm 14.2 6.5 7.0 62 3.5 SSW 37 43 20 23 1013.2 1013.2 0.0
01/02:30pm 14.2 7.4 6.8 61 3.6 SW 32 39 17 21 1013.1 1013.1 0.0
01/02:00pm 13.9 6.8 6.5 61 3.6 SW 33 39 18 21 1013.1 1013.1 0.0
01/01:30pm 13.6 6.1 6.5 62 3.4 SW 35 46 19 25 1013.1 1013.1 0.0
01/01:00pm 14.1 8.1 6.9 62 3.5 SSW 28 37 15 20 1013.2 1013.2 0.0
01/12:30pm 14.2 7.2 6.8 61 3.6 SW 33 43 18 23 1013.4 1013.4 0.0
01/12:00pm 13.8 6.4 6.7 62 3.4 SW 35 44 19 24 1013.7 1013.7 0.0
01/11:30am 13.6 5.5 7.2 65 3.1 WSW 39 46 21 25 1013.8 1013.8 0.0
01/11:00am 13.2 5.4 6.8 65 3.1 WSW 37 46 20 25 1013.8 1013.8 0.0
01/10:30am 12.9 5.5 6.7 66 3.0 WSW 35 44 19 24 1013.9 1013.9 0.0
01/10:00am 12.4 4.9 6.2 66 2.9 WSW 35 46 19 25 1014.1 1014.1 0.0
01/09:30am 12.0 4.9 6.5 69 2.6 WSW 33 41 18 22 1014.2 1014.2 0.0
01/09:00am 11.6 3.7 6.3 70 2.5 WSW 37 43 20 23 1014.5 1014.5 0.0
01/08:30am 11.2 3.3 6.3 72 2.3 WSW 37 46 20 25 1014.5 1014.5 0.0
01/08:00am 10.7 1.6 5.9 72 2.2 WSW 43 54 23 29 1014.4 1014.4 0.0
01/07:30am 10.5 1.8 5.9 73 2.1 WSW 41 50 22 27 1014.0 1014.0 0.0
01/07:00am 10.3 0.7 6.1 75 1.9 W 46 57 25 31 1013.7 1013.7 0.0
01/06:30am 10.4 1.7 6.2 75 2.0 WSW 41 56 22 30 1013.9 1013.9 0.0
01/06:00am 10.5 1.3 6.5 76 1.9 WSW 44 52 24 28 1013.4 1013.4 0.0
01/05:30am 10.4 0.8 6.4 76 1.9 WSW 46 56 25 30 1013.5 1013.5 0.0
01/05:00am 10.4 0.4 6.2 75 2.0 WSW 48 57 26 31 1013.3 1013.3 0.0
01/04:30am 10.6 0.6 6.2 74 2.1 WSW 48 57 26 31 1013.4 1013.4 0.0
01/04:00am 10.6 1.0 6.4 75 2.0 WSW 46 59 25 32 1013.5 1013.5 0.0
01/03:30am 10.5 0.6 6.5 76 1.9 WSW 48 56 26 30 1013.6 1013.6 0.0
01/03:00am 10.5 1.0 6.8 78 1.7 WSW 46 57 25 31 1013.6 1013.6 0.0
01/02:30am 10.5 1.1 7.0 79 1.7 WSW 46 56 25 30 1013.8 1013.8 0.0
01/02:00am 10.7 0.9 7.2 79 1.7 WSW 48 59 26 32 1014.0 1014.0 0.0
01/01:30am 10.6 0.8 7.1 79 1.7 WSW 48 61 26 33 1014.4 1014.4 0.0
01/01:00am 10.7 1.7 7.2 79 1.7 WSW 44 56 24 30 1014.7 1014.7 0.0
01/12:30am 10.6 2.2 7.3 80 1.6 WSW 41 48 22 26 1015.0 1015.0 0.0
01/12:00am 10.7 2.4 7.6 81 1.5 WSW 41 46 22 25 1015.1 1015.1 0.0
 
Date/Time
EST
Temp
°C
App
Temp
°C
Dew
Point
Rel
Hum
%
Delta-T
°C
Wind Press
QNH
hPa
Press
MSL
hPa
Rain
since 9 am
mm
Dir
 
Spd
km/h
Gust
km/h
Spd
kts
Gust
kts
31/11:30pm 10.5 2.2 7.6 82 1.4 WSW 41 50 22 27 1015.2 1015.2 0.0
31/11:00pm 10.6 0.9 7.7 82 1.4 WSW 48 57 26 31 1015.1 1015.1 0.0

Other Formats:

Comma delimited format used in spreadsheet applications
http://www.bom.gov.au/fwo/IDN60801/IDN60801.94934.axf

JavaScript Object Notation format (JSON) in row-major order
http://www.bom.gov.au/fwo/IDN60801/IDN60801.94934.json